createdAt,value
2018-12-11T00:00:48.102Z,8.87
2018-12-11T00:03:17.126Z,20.23
2018-12-11T00:05:46.161Z,6.10
2018-12-11T00:08:15.147Z,10.07
2018-12-11T00:10:44.399Z,14.83
2018-12-11T00:13:13.432Z,12.67
2018-12-11T00:15:42.481Z,14.17
2018-12-11T00:18:11.870Z,12.47
2018-12-11T00:20:40.790Z,7.90
2018-12-11T00:23:09.870Z,16.47
2018-12-11T00:25:38.901Z,12.57
2018-12-11T00:28:08.472Z,16.03
2018-12-11T00:30:37.837Z,12.57
2018-12-11T00:33:08.306Z,21.33
2018-12-11T00:35:37.296Z,12.40
2018-12-11T00:38:06.305Z,15.00
2018-12-11T00:40:35.390Z,13.37
2018-12-11T00:43:04.598Z,12.53
2018-12-11T00:45:33.647Z,14.13
2018-12-11T00:48:03.710Z,16.20
2018-12-11T00:50:32.807Z,15.30
2018-12-11T00:53:01.897Z,13.33
2018-12-11T00:55:30.990Z,13.53
2018-12-11T00:57:59.910Z,18.73
2018-12-11T01:00:29.178Z,18.70
2018-12-11T01:02:58.107Z,18.83
2018-12-11T01:05:27.410Z,14.27
2018-12-11T01:07:56.349Z,16.20
2018-12-11T01:10:25.315Z,12.90
2018-12-11T01:12:54.502Z,16.43
2018-12-11T01:15:23.433Z,21.63
2018-12-11T01:17:52.865Z,20.33
2018-12-11T01:20:21.831Z,15.93
2018-12-11T01:22:50.868Z,11.27
2018-12-11T01:25:19.973Z,17.77
2018-12-11T01:27:49.171Z,16.23
2018-12-11T01:30:18.216Z,19.83
2018-12-11T01:32:47.150Z,13.53
2018-12-11T01:35:16.056Z,16.40
2018-12-11T01:37:44.966Z,18.23
2018-12-11T01:40:14.387Z,23.10
2018-12-11T01:42:43.691Z,14.40
2018-12-11T01:45:12.770Z,11.87
2018-12-11T01:47:41.693Z,18.10
2018-12-11T01:50:10.670Z,17.07
2018-12-11T01:52:39.747Z,13.50
2018-12-11T01:55:08.740Z,15.03
2018-12-11T01:57:37.699Z,14.80
2018-12-11T02:00:09.207Z,13.50
2018-12-11T02:02:38.105Z,10.70
2018-12-11T02:05:07.312Z,12.67
2018-12-11T02:07:36.438Z,17.90
2018-12-11T02:10:05.885Z,11.07
2018-12-11T02:12:34.969Z,10.30
2018-12-11T02:15:06.069Z,6.97
2018-12-11T02:17:35.002Z,14.23
2018-12-11T02:20:05.606Z,13.07
2018-12-11T02:22:34.505Z,13.47
2018-12-11T02:25:04.042Z,19.30
2018-12-11T02:27:33.017Z,14.13
2018-12-11T02:30:02.103Z,13.17
2018-12-11T02:32:31.205Z,11.43
2018-12-11T02:35:00.274Z,22.13
2018-12-11T02:37:29.245Z,11.93
2018-12-11T02:39:58.971Z,12.87
2018-12-11T02:42:29.327Z,13.27
2018-12-11T02:44:58.346Z,19.33
2018-12-11T02:47:27.289Z,13.30
2018-12-11T02:49:56.184Z,12.97
2018-12-11T02:52:25.117Z,10.20
2018-12-11T02:54:54.336Z,13.13
2018-12-11T02:57:23.435Z,13.87
2018-12-11T02:59:52.388Z,9.87
2018-12-11T03:02:21.822Z,8.37
2018-12-11T03:04:50.848Z,9.77
2018-12-11T03:07:19.820Z,8.67
2018-12-11T03:09:49.153Z,12.43
2018-12-11T03:12:18.293Z,8.07
2018-12-11T03:14:47.307Z,6.47
2018-12-11T03:17:16.237Z,5.07
2018-12-11T03:19:45.283Z,11.00
2018-12-11T03:22:14.437Z,6.20
2018-12-11T03:24:43.686Z,9.63
2018-12-11T03:27:12.697Z,13.87
2018-12-11T03:29:41.672Z,6.97
2018-12-11T03:32:10.644Z,9.17
2018-12-11T03:34:39.554Z,12.83
2018-12-11T03:37:08.498Z,11.57
2018-12-11T03:39:37.522Z,9.43
2018-12-11T03:42:06.612Z,9.93
2018-12-11T03:44:35.614Z,9.93
2018-12-11T03:47:04.894Z,10.60
2018-12-11T03:49:33.825Z,13.40
2018-12-11T03:52:02.798Z,6.73
2018-12-11T03:54:31.696Z,9.60
2018-12-11T03:57:00.633Z,4.13
2018-12-11T03:59:29.584Z,15.40
2018-12-11T04:01:59.169Z,10.10
2018-12-11T04:04:28.183Z,7.77
2018-12-11T04:06:57.147Z,8.77
2018-12-11T04:09:26.027Z,10.50
2018-12-11T04:11:55.519Z,8.17
2018-12-11T04:14:24.774Z,8.37
2018-12-11T04:16:54.114Z,8.20
2018-12-11T04:19:23.056Z,9.93
2018-12-11T04:21:52.041Z,7.80
2018-12-11T04:24:21.298Z,11.80
2018-12-11T04:26:50.684Z,8.93
2018-12-11T04:29:20.094Z,16.37
2018-12-11T04:31:49.006Z,5.30
2018-12-11T04:34:17.938Z,10.57
2018-12-11T04:36:47.155Z,9.97
2018-12-11T04:39:16.043Z,4.00
2018-12-11T04:41:45.659Z,16.50
2018-12-11T04:44:14.600Z,9.43
2018-12-11T04:46:43.592Z,10.67
2018-12-11T04:49:12.838Z,5.57
2018-12-11T04:51:41.719Z,12.00
2018-12-11T04:54:10.650Z,8.83
2018-12-11T04:56:39.931Z,6.60
2018-12-11T04:59:08.894Z,12.13
2018-12-11T05:01:38.356Z,9.83
2018-12-11T05:04:07.299Z,9.87
2018-12-11T05:06:36.183Z,7.00
2018-12-11T05:09:07.133Z,9.20
2018-12-11T05:11:36.230Z,12.20
2018-12-11T05:14:05.222Z,5.03
2018-12-11T05:16:34.157Z,9.07
2018-12-11T05:19:03.435Z,10.03
2018-12-11T05:21:32.862Z,7.43
2018-12-11T05:24:01.926Z,5.00
2018-12-11T05:26:30.919Z,9.00
2018-12-11T05:28:59.852Z,9.20
2018-12-11T05:31:28.794Z,13.63
2018-12-11T05:33:57.746Z,7.00
2018-12-11T05:36:26.666Z,8.20
2018-12-11T05:38:56.043Z,11.07
2018-12-11T05:41:24.983Z,7.67
2018-12-11T05:43:53.924Z,9.23
2018-12-11T05:46:22.860Z,9.30
2018-12-11T05:48:51.901Z,14.30
2018-12-11T05:51:20.941Z,10.63
2018-12-11T05:53:50.094Z,6.53
2018-12-11T05:56:18.987Z,15.63
2018-12-11T05:58:48.517Z,11.90
2018-12-11T06:01:17.631Z,10.43
2018-12-11T06:03:46.783Z,8.93
2018-12-11T06:06:15.758Z,11.67
2018-12-11T06:08:44.724Z,10.80
2018-12-11T06:11:13.591Z,6.07
2018-12-11T06:13:43.099Z,13.20
2018-12-11T06:16:12.302Z,9.33
2018-12-11T06:18:41.198Z,11.43
2018-12-11T06:21:10.104Z,12.43
2018-12-11T06:23:39.080Z,10.93
2018-12-11T06:26:08.073Z,10.53
2018-12-11T06:28:37.169Z,12.50
2018-12-11T06:31:06.127Z,8.97
2018-12-11T06:33:35.056Z,10.27
2018-12-11T06:36:04.527Z,13.33
2018-12-11T06:38:33.490Z,9.17
2018-12-11T06:41:02.427Z,14.10
2018-12-11T06:43:31.326Z,10.23
2018-12-11T06:46:00.395Z,10.63
2018-12-11T06:48:29.282Z,11.77
2018-12-11T06:50:58.305Z,9.00
2018-12-11T06:53:28.305Z,10.60
2018-12-11T06:55:57.878Z,9.77
2018-12-11T06:58:26.854Z,12.60
2018-12-11T07:00:56.554Z,6.97
2018-12-11T07:03:25.509Z,8.70
2018-12-11T07:05:54.532Z,17.03
2018-12-11T07:08:23.536Z,12.07
2018-12-11T07:10:52.496Z,7.43
2018-12-11T07:13:21.498Z,11.30
2018-12-11T07:15:50.590Z,13.40
2018-12-11T07:18:25.803Z,8.47
2018-12-11T07:20:50.844Z,12.37
2018-12-11T07:23:19.831Z,13.60
2018-12-11T07:25:48.919Z,12.87
2018-12-11T07:28:17.927Z,12.77
2018-12-11T07:30:47.036Z,15.13
2018-12-11T07:33:16.363Z,15.27
2018-12-11T07:35:45.360Z,9.70
2018-12-11T07:38:14.306Z,11.53
2018-12-11T07:40:43.337Z,16.93
2018-12-11T07:43:12.334Z,18.93
2018-12-11T07:45:42.832Z,14.10
2018-12-11T07:48:11.777Z,12.13
2018-12-11T07:50:40.674Z,19.33
2018-12-11T07:53:09.622Z,16.13
2018-12-11T07:55:38.639Z,14.67
2018-12-11T07:58:07.539Z,8.90
2018-12-11T08:00:36.476Z,8.50
2018-12-11T08:03:05.308Z,15.07
2018-12-11T08:05:34.267Z,11.60
2018-12-11T08:08:03.254Z,10.60
2018-12-11T08:10:32.175Z,18.23
2018-12-11T08:13:01.049Z,12.07
2018-12-11T08:15:30.023Z,13.03
2018-12-11T08:17:59.049Z,16.23
2018-12-11T08:20:28.015Z,15.83
2018-12-11T08:22:56.928Z,17.73
2018-12-11T08:25:25.959Z,11.10
2018-12-11T08:27:55.340Z,13.53
2018-12-11T08:30:24.343Z,13.13
2018-12-11T08:32:53.407Z,13.30
2018-12-11T08:35:22.339Z,15.67
2018-12-11T08:37:51.292Z,13.33
2018-12-11T08:40:20.318Z,11.97
2018-12-11T08:42:49.574Z,13.63
2018-12-11T08:45:24.745Z,15.77
2018-12-11T08:47:53.682Z,13.87
2018-12-11T08:50:22.609Z,13.47
2018-12-11T08:52:51.578Z,17.20
2018-12-11T08:55:20.565Z,12.20
2018-12-11T08:57:49.534Z,12.70
2018-12-11T09:00:18.555Z,18.63
2018-12-11T09:02:47.503Z,14.73
2018-12-11T09:05:18.023Z,13.93
2018-12-11T09:07:47.018Z,12.87
2018-12-11T09:10:16.166Z,12.00
2018-12-11T09:12:45.160Z,14.90
2018-12-11T09:15:14.023Z,12.93
2018-12-11T09:17:42.982Z,14.40
2018-12-11T09:20:12.118Z,13.07
2018-12-11T09:22:41.063Z,15.53
2018-12-11T09:25:10.066Z,18.27
2018-12-11T09:27:39.026Z,12.87
2018-12-11T09:30:09.642Z,21.37
2018-12-11T09:32:38.669Z,14.47
2018-12-11T09:35:07.561Z,16.37
2018-12-11T09:37:36.448Z,15.63
2018-12-11T09:40:05.473Z,17.03
2018-12-11T09:42:34.765Z,12.43
2018-12-11T09:45:06.642Z,13.50
2018-12-11T09:47:35.616Z,18.53
2018-12-11T09:50:05.030Z,13.77
2018-12-11T09:52:33.957Z,13.57
2018-12-11T09:55:03.181Z,11.10
2018-12-11T09:57:32.237Z,19.20
2018-12-11T10:00:01.140Z,11.40
2018-12-11T10:02:30.114Z,9.57
2018-12-11T10:04:59.041Z,15.30
2018-12-11T10:07:27.939Z,14.57
2018-12-11T10:09:56.947Z,13.00
2018-12-11T10:12:26.189Z,12.40
2018-12-11T10:14:55.153Z,12.07
2018-12-11T10:17:24.043Z,12.73
2018-12-11T10:19:53.040Z,10.40
2018-12-11T10:22:22.123Z,18.43
2018-12-11T10:24:51.066Z,8.93
2018-12-11T10:27:19.975Z,14.10
2018-12-11T10:29:48.942Z,17.33
2018-12-11T10:32:17.850Z,11.87
2018-12-11T10:34:46.951Z,10.67
2018-12-11T10:37:16.166Z,10.83
2018-12-11T10:39:45.137Z,16.20
2018-12-11T10:42:14.069Z,8.67
2018-12-11T10:44:44.320Z,8.60
2018-12-11T10:47:13.259Z,11.60
2018-12-11T10:49:42.241Z,6.53
2018-12-11T10:52:11.392Z,11.00
2018-12-11T10:54:40.659Z,9.83
2018-12-11T10:57:09.654Z,8.40
2018-12-11T10:59:38.588Z,13.73
2018-12-11T11:02:28.535Z,8.03
2018-12-11T11:04:57.839Z,9.37
2018-12-11T11:07:27.678Z,4.93
2018-12-11T11:09:56.589Z,12.40
2018-12-11T11:12:25.569Z,7.47
2018-12-11T11:14:55.454Z,8.17
2018-12-11T11:17:24.447Z,7.13
2018-12-11T11:19:53.928Z,8.33
2018-12-11T11:22:23.050Z,5.30
2018-12-11T11:24:52.438Z,10.87
2018-12-11T11:27:21.602Z,8.30
2018-12-11T11:29:50.497Z,9.33
2018-12-11T11:32:19.720Z,6.33
2018-12-11T11:34:48.682Z,4.87
2018-12-11T11:37:17.594Z,11.67
2018-12-11T11:39:46.869Z,6.27
2018-12-11T11:42:18.332Z,7.37
2018-12-11T11:44:47.713Z,15.83
2018-12-11T11:47:16.709Z,7.70
2018-12-11T11:49:45.585Z,6.90
2018-12-11T11:52:15.039Z,6.47
2018-12-11T11:54:44.483Z,8.33
2018-12-11T11:57:13.488Z,8.20
2018-12-11T11:59:42.514Z,10.33
2018-12-11T12:02:11.504Z,1.50
2018-12-11T12:04:40.486Z,6.60
2018-12-11T12:07:09.442Z,2.57
2018-12-11T12:09:38.433Z,3.67
2018-12-11T12:12:07.486Z,3.60
2018-12-11T12:14:36.434Z,3.23
2018-12-11T12:17:05.870Z,3.37
2018-12-11T12:19:34.798Z,1.67
2018-12-11T12:22:03.894Z,1.20
2018-12-11T12:24:32.812Z,3.33
2018-12-11T12:27:01.747Z,4.13
2018-12-11T12:29:30.625Z,4.93
2018-12-11T12:31:59.510Z,2.00
2018-12-11T12:34:28.400Z,3.00
2018-12-11T12:36:57.388Z,4.07
2018-12-11T12:39:26.663Z,3.10
2018-12-11T12:41:55.647Z,4.03
2018-12-11T12:44:24.928Z,1.37
2018-12-11T12:46:53.843Z,2.87
2018-12-11T12:49:22.834Z,5.67
2018-12-11T12:51:51.755Z,3.47
2018-12-11T12:54:20.716Z,2.80
2018-12-11T12:56:49.844Z,3.90
2018-12-11T12:59:18.799Z,3.67
2018-12-11T13:01:47.784Z,2.40
2018-12-11T13:04:16.706Z,3.07
2018-12-11T13:06:46.095Z,4.07
2018-12-11T13:09:15.312Z,6.97
2018-12-11T13:11:44.548Z,2.47
2018-12-11T13:14:13.715Z,3.90
2018-12-11T13:16:42.605Z,6.03
2018-12-11T13:19:11.563Z,6.67
2018-12-11T13:21:40.480Z,4.60
2018-12-11T13:24:09.685Z,4.87
2018-12-11T13:26:39.026Z,3.60
2018-12-11T13:29:08.322Z,2.33
2018-12-11T13:31:37.267Z,1.73
2018-12-11T13:34:06.298Z,3.30
2018-12-11T13:36:35.195Z,3.53
2018-12-11T13:39:06.241Z,5.17
2018-12-11T13:41:35.438Z,4.10
2018-12-11T13:44:04.808Z,5.97
2018-12-11T13:46:34.290Z,1.60
2018-12-11T13:49:03.604Z,3.57
2018-12-11T13:51:32.579Z,3.73
2018-12-11T13:54:01.536Z,3.00
2018-12-11T13:56:30.451Z,2.47
2018-12-11T13:58:59.346Z,4.73
2018-12-11T14:01:28.576Z,2.80
2018-12-11T14:03:57.687Z,1.47
2018-12-11T14:06:26.692Z,4.43
2018-12-11T14:08:55.675Z,2.47
2018-12-11T14:11:24.701Z,1.63
2018-12-11T14:13:53.744Z,1.50
2018-12-11T14:16:22.683Z,4.27
2018-12-11T14:18:51.889Z,3.87
2018-12-11T14:21:20.840Z,1.63
2018-12-11T14:23:49.917Z,1.23
2018-12-11T14:26:18.839Z,3.60
2018-12-11T14:28:47.959Z,2.87
2018-12-11T14:31:17.016Z,4.63
2018-12-11T14:33:45.888Z,4.10
2018-12-11T14:36:14.811Z,4.53
2018-12-11T14:38:43.843Z,2.37
2018-12-11T14:41:12.844Z,3.97
2018-12-11T14:43:41.715Z,0.93
2018-12-11T14:46:10.655Z,3.93
2018-12-11T14:48:39.583Z,2.50
2018-12-11T14:51:08.606Z,2.43
2018-12-11T14:53:37.564Z,5.50
2018-12-11T14:56:06.575Z,5.37
2018-12-11T14:58:35.528Z,3.40
2018-12-11T15:01:05.019Z,3.10
2018-12-11T15:03:33.899Z,4.80
2018-12-11T15:06:03.363Z,2.07
2018-12-11T15:08:32.401Z,2.43
2018-12-11T15:11:01.464Z,2.17
2018-12-11T15:13:30.478Z,7.83
2018-12-11T15:15:59.450Z,8.30
2018-12-11T15:18:28.508Z,6.13
2018-12-11T15:20:57.500Z,4.70
2018-12-11T15:23:26.521Z,3.33
2018-12-11T15:25:55.452Z,9.90
2018-12-11T15:28:24.386Z,2.33
2018-12-11T15:31:11.325Z,4.40
2018-12-11T15:33:40.324Z,5.20
2018-12-11T15:36:09.305Z,3.33
2018-12-11T15:38:38.293Z,7.27
2018-12-11T15:41:07.559Z,11.90
2018-12-11T15:43:36.540Z,6.23
2018-12-11T15:46:05.498Z,6.10
2018-12-11T15:48:34.409Z,4.37
2018-12-11T15:51:03.379Z,4.43
2018-12-11T15:53:32.533Z,6.13
2018-12-11T15:56:01.397Z,2.97
2018-12-11T15:58:30.742Z,5.97
2018-12-11T16:00:59.682Z,3.40
2018-12-11T16:03:28.669Z,1.87
2018-12-11T16:05:57.643Z,7.07
2018-12-11T16:08:26.591Z,6.10
2018-12-11T16:10:55.662Z,6.63
2018-12-11T16:13:24.683Z,3.83
2018-12-11T16:15:53.605Z,4.77
2018-12-11T16:18:22.658Z,6.57
2018-12-11T16:20:51.846Z,6.90
2018-12-11T16:23:21.110Z,4.57
2018-12-11T16:25:50.021Z,3.80
2018-12-11T16:28:18.945Z,5.03
2018-12-11T16:30:47.979Z,5.27
2018-12-11T16:33:17.298Z,6.07
2018-12-11T16:35:46.341Z,5.83
2018-12-11T16:38:15.878Z,5.83
2018-12-11T16:40:44.776Z,7.53
2018-12-11T16:43:13.753Z,7.20
2018-12-11T16:45:42.674Z,8.97
2018-12-11T16:48:11.810Z,7.67
2018-12-11T16:50:40.755Z,8.57
2018-12-11T16:53:09.664Z,10.23
2018-12-11T16:55:39.186Z,10.37
2018-12-11T16:58:08.385Z,12.73
2018-12-11T17:00:37.632Z,7.07
2018-12-11T17:03:06.684Z,6.13
2018-12-11T17:05:35.710Z,4.63
2018-12-11T17:08:04.704Z,7.50
2018-12-11T17:10:33.805Z,6.83
2018-12-11T17:13:02.963Z,9.13
2018-12-11T17:15:32.226Z,7.80
2018-12-11T17:18:01.120Z,6.57
2018-12-11T17:20:30.494Z,5.30
2018-12-11T17:22:59.401Z,3.33
2018-12-11T17:25:29.080Z,7.50
2018-12-11T17:27:58.007Z,4.53
2018-12-11T17:30:26.931Z,6.90
2018-12-11T17:32:55.883Z,7.10
2018-12-11T17:35:24.823Z,5.17
2018-12-11T17:37:53.729Z,5.37
2018-12-11T17:40:22.775Z,7.07
2018-12-11T17:42:52.098Z,4.13
2018-12-11T17:45:21.270Z,4.87
2018-12-11T17:47:50.288Z,7.57
2018-12-11T17:50:19.263Z,4.80
2018-12-11T17:52:48.418Z,29.93
2018-12-11T17:55:17.389Z,5.43
2018-12-11T17:57:46.399Z,9.93
2018-12-11T18:00:15.406Z,9.37
2018-12-11T18:02:44.473Z,9.27
2018-12-11T18:05:13.580Z,7.10
2018-12-11T18:07:42.482Z,12.37
2018-12-11T18:10:11.522Z,10.73
2018-12-11T18:12:40.423Z,15.40
2018-12-11T18:15:11.337Z,18.17
2018-12-11T18:17:40.202Z,19.43
2018-12-11T18:20:09.298Z,14.87
2018-12-11T18:22:38.310Z,17.53
2018-12-11T18:25:07.416Z,15.73
2018-12-11T18:27:36.750Z,16.67
2018-12-11T18:30:07.652Z,19.10
2018-12-11T18:32:36.578Z,15.07
2018-12-11T18:35:05.974Z,14.33
2018-12-11T18:37:35.164Z,8.33
2018-12-11T18:40:07.534Z,8.37
2018-12-11T18:42:36.434Z,8.87
2018-12-11T18:45:07.188Z,11.63
2018-12-11T18:47:36.175Z,9.60
2018-12-11T18:50:06.618Z,7.07
2018-12-11T18:52:35.566Z,10.20
2018-12-11T18:55:04.887Z,8.23
2018-12-11T18:57:33.802Z,7.43
2018-12-11T19:00:02.952Z,9.07
2018-12-11T19:02:31.903Z,11.97
2018-12-11T19:05:02.757Z,9.53
2018-12-11T19:07:31.917Z,7.77
2018-12-11T19:10:00.869Z,15.83
2018-12-11T19:12:30.242Z,8.63
2018-12-11T19:15:04.588Z,10.87
2018-12-11T19:17:30.271Z,15.13
2018-12-11T19:19:59.218Z,9.07
2018-12-11T19:22:28.198Z,10.93
2018-12-11T19:24:58.065Z,11.23
2018-12-11T19:27:27.015Z,8.03
2018-12-11T19:29:56.000Z,7.20
2018-12-11T19:32:25.154Z,8.10
2018-12-11T19:34:54.448Z,10.57
2018-12-11T19:37:24.552Z,12.53
2018-12-11T19:39:53.643Z,12.10
2018-12-11T19:42:22.619Z,13.83
2018-12-11T19:44:51.580Z,9.17
2018-12-11T19:47:20.589Z,6.50
2018-12-11T19:49:49.565Z,10.47
2018-12-11T19:52:19.414Z,8.00
2018-12-11T19:54:48.683Z,8.60
2018-12-11T19:57:17.636Z,13.53
2018-12-11T19:59:46.537Z,9.17
2018-12-11T20:02:15.578Z,9.83
2018-12-11T20:04:44.476Z,6.73
2018-12-11T20:07:13.511Z,8.80
2018-12-11T20:09:48.242Z,9.87
2018-12-11T20:12:17.346Z,13.17
2018-12-11T20:14:46.580Z,11.37
2018-12-11T20:17:16.247Z,7.37
2018-12-11T20:19:45.167Z,7.40
2018-12-11T20:22:14.466Z,8.90
2018-12-11T20:24:44.768Z,7.60
2018-12-11T20:27:14.021Z,7.03
2018-12-11T20:29:42.970Z,6.87
2018-12-11T20:32:11.949Z,7.67
2018-12-11T20:34:40.873Z,6.33
2018-12-11T20:37:10.332Z,9.23
2018-12-11T20:39:39.237Z,8.40
2018-12-11T20:42:08.438Z,6.80
2018-12-11T20:44:37.552Z,7.23
2018-12-11T20:47:06.669Z,7.50
2018-12-11T20:49:36.976Z,11.27
2018-12-11T20:52:05.903Z,7.40
2018-12-11T20:54:34.831Z,10.10
2018-12-11T20:57:03.788Z,7.83
2018-12-11T20:59:32.824Z,11.67
2018-12-11T21:02:02.084Z,9.23
2018-12-11T21:04:30.981Z,7.73
2018-12-11T21:06:59.896Z,9.57
2018-12-11T21:09:28.787Z,8.77
2018-12-11T21:11:57.620Z,11.33
2018-12-11T21:14:26.937Z,12.00
2018-12-11T21:16:55.829Z,10.60
2018-12-11T21:19:24.749Z,9.47
2018-12-11T21:21:53.710Z,7.37
2018-12-11T21:24:23.302Z,8.67
2018-12-11T21:26:52.769Z,6.63
2018-12-11T21:29:22.005Z,6.43
2018-12-11T21:31:51.015Z,6.83
2018-12-11T21:34:20.328Z,7.03
2018-12-11T21:36:49.333Z,6.07
2018-12-11T21:39:18.496Z,6.50
2018-12-11T21:41:47.385Z,6.10
2018-12-11T21:44:16.615Z,6.73
2018-12-11T21:46:46.107Z,7.07
2018-12-11T21:49:15.378Z,10.77
2018-12-11T21:51:45.250Z,6.27
2018-12-11T21:54:14.838Z,11.20
2018-12-11T21:56:44.187Z,6.67
2018-12-11T21:59:14.057Z,7.73
2018-12-11T22:01:43.672Z,7.97
2018-12-11T22:04:12.899Z,8.47
2018-12-11T22:06:43.935Z,8.00
2018-12-11T22:09:13.582Z,6.40
2018-12-11T22:11:42.824Z,8.27
2018-12-11T22:14:12.301Z,9.67
2018-12-11T22:16:41.716Z,7.37
2018-12-11T22:19:10.648Z,9.27
2018-12-11T22:21:39.999Z,7.37
2018-12-11T22:24:09.035Z,9.33
2018-12-11T22:26:38.636Z,7.13
2018-12-11T22:29:07.674Z,6.53
2018-12-11T22:31:36.908Z,7.57
2018-12-11T22:34:06.081Z,6.53
2018-12-11T22:36:35.707Z,13.03
2018-12-11T22:39:07.913Z,5.67
2018-12-11T22:41:37.278Z,8.53
2018-12-11T22:44:06.183Z,8.43
2018-12-11T22:46:35.630Z,9.13
2018-12-11T22:49:04.601Z,9.87
2018-12-11T22:51:34.059Z,7.37
2018-12-11T22:54:03.685Z,7.13
2018-12-11T22:56:33.520Z,7.77
2018-12-11T22:59:02.731Z,10.03
2018-12-11T23:01:31.913Z,8.50
2018-12-11T23:04:00.851Z,5.77
2018-12-11T23:06:29.821Z,7.37
2018-12-11T23:08:58.781Z,7.00
2018-12-11T23:11:27.667Z,9.00
2018-12-11T23:13:56.940Z,8.17
2018-12-11T23:16:25.824Z,8.17
2018-12-11T23:18:54.912Z,7.80
2018-12-11T23:21:23.772Z,7.33
2018-12-11T23:23:53.725Z,11.93
2018-12-11T23:26:22.726Z,8.70
2018-12-11T23:28:51.812Z,8.77
2018-12-11T23:31:20.892Z,6.87
2018-12-11T23:33:49.870Z,6.83
2018-12-11T23:36:18.758Z,8.40
2018-12-11T23:38:47.828Z,7.90
2018-12-11T23:41:16.793Z,7.20
2018-12-11T23:43:45.810Z,6.23
2018-12-11T23:46:14.803Z,7.47
2018-12-11T23:48:44.354Z,9.43
2018-12-11T23:51:13.215Z,5.83
2018-12-11T23:53:42.146Z,7.07
2018-12-11T23:56:11.089Z,7.67
2018-12-11T23:58:40.383Z,7.20
